sensor_id;sensor_type;location;lat;lon;timestamp;pressure;altitude;pressure_sealevel;temperature;humidity
69245;BME280;56357;52.304;4.870;2023-02-11T00:02:07;103579.91;;;17.35;nan
69245;BME280;56357;52.304;4.870;2023-02-11T00:04:34;103570.19;;;17.31;nan
69245;BME280;56357;52.304;4.870;2023-02-11T00:07:00;103571.94;;;17.32;nan
69245;BME280;56357;52.304;4.870;2023-02-11T00:09:27;103571.50;;;17.28;nan
69245;BME280;56357;52.304;4.870;2023-02-11T00:11:53;103565.03;;;17.28;nan
69245;BME280;56357;52.304;4.870;2023-02-11T00:14:20;103563.72;;;17.24;nan
69245;BME280;56357;52.304;4.870;2023-02-11T00:16:46;103578.38;;;17.26;nan
69245;BME280;56357;52.304;4.870;2023-02-11T00:19:12;103563.72;;;17.24;nan
69245;BME280;56357;52.304;4.870;2023-02-11T00:21:39;103565.88;;;17.22;nan
69245;BME280;56357;52.304;4.870;2023-02-11T00:24:05;103576.22;;;17.28;nan
69245;BME280;56357;52.304;4.870;2023-02-11T00:26:33;103569.97;;;17.26;nan
69245;BME280;56357;52.304;4.870;2023-02-11T00:29:00;103571.25;;;17.23;nan
69245;BME280;56357;52.304;4.870;2023-02-11T00:31:28;103579.88;;;17.22;nan
69245;BME280;56357;52.304;4.870;2023-02-11T00:33:55;103576.00;;;17.23;nan
69245;BME280;56357;52.304;4.870;2023-02-11T00:36:24;103583.75;;;17.21;nan
69245;BME280;56357;52.304;4.870;2023-02-11T00:38:53;103592.16;;;17.21;nan
69245;BME280;56357;52.304;4.870;2023-02-11T00:41:19;103593.22;;;17.20;nan
69245;BME280;56357;52.304;4.870;2023-02-11T00:43:46;103585.25;;;17.17;nan
69245;BME280;56357;52.304;4.870;2023-02-11T00:46:13;103591.28;;;17.20;nan
69245;BME280;56357;52.304;4.870;2023-02-11T00:48:40;103589.75;;;17.18;nan
69245;BME280;56357;52.304;4.870;2023-02-11T00:51:07;103592.78;;;17.16;nan
69245;BME280;56357;52.304;4.870;2023-02-11T00:53:34;103580.09;;;17.20;nan
69245;BME280;56357;52.304;4.870;2023-02-11T00:56:00;103576.84;;;17.17;nan
69245;BME280;56357;52.304;4.870;2023-02-11T00:58:27;103571.44;;;17.15;nan
69245;BME280;56357;52.304;4.870;2023-02-11T01:00:54;103558.50;;;17.14;nan
69245;BME280;56357;52.304;4.870;2023-02-11T01:03:21;103547.91;;;17.10;nan
69245;BME280;56357;52.304;4.870;2023-02-11T01:05:47;103550.09;;;17.14;nan
69245;BME280;56357;52.304;4.870;2023-02-11T01:08:14;103540.19;;;17.12;nan
69245;BME280;56357;52.304;4.870;2023-02-11T01:10:41;103551.19;;;17.13;nan
69245;BME280;56357;52.304;4.870;2023-02-11T01:13:08;103537.81;;;17.09;nan
69245;BME280;56357;52.304;4.870;2023-02-11T01:15:34;103539.53;;;17.10;nan
69245;BME280;56357;52.304;4.870;2023-02-11T01:18:01;103532.59;;;17.06;nan
69245;BME280;56357;52.304;4.870;2023-02-11T01:20:27;103543.41;;;17.09;nan
69245;BME280;56357;52.304;4.870;2023-02-11T01:22:54;103535.84;;;17.03;nan
69245;BME280;56357;52.304;4.870;2023-02-11T01:25:20;103539.28;;;17.05;nan
69245;BME280;56357;52.304;4.870;2023-02-11T01:27:47;103553.50;;;17.03;nan
69245;BME280;56357;52.304;4.870;2023-02-11T01:30:13;103560.81;;;17.04;nan
69245;BME280;56357;52.304;4.870;2023-02-11T01:32:40;103560.16;;;17.02;nan
69245;BME280;56357;52.304;4.870;2023-02-11T01:35:06;103565.16;;;17.07;nan
69245;BME280;56357;52.304;4.870;2023-02-11T01:37:33;103552.22;;;17.06;nan
69245;BME280;56357;52.304;4.870;2023-02-11T01:40:01;103556.09;;;17.05;nan
69245;BME280;56357;52.304;4.870;2023-02-11T01:42:28;103555.44;;;17.03;nan
69245;BME280;56357;52.304;4.870;2023-02-11T01:44:56;103557.19;;;17.04;nan
69245;BME280;56357;52.304;4.870;2023-02-11T01:47:22;103558.47;;;17.01;nan
69245;BME280;56357;52.304;4.870;2023-02-11T01:49:56;103560.16;;;17.02;nan
69245;BME280;56357;52.304;4.870;2023-02-11T01:52:31;103553.06;;;17.00;nan
69245;BME280;56357;52.304;4.870;2023-02-11T01:55:04;103551.97;;;17.01;nan
69245;BME280;56357;52.304;4.870;2023-02-11T01:57:55;103552.84;;;17.01;nan
69245;BME280;56357;52.304;4.870;2023-02-11T02:00:26;103546.81;;;16.98;nan
69245;BME280;56357;52.304;4.870;2023-02-11T02:03:14;103547.22;;;16.95;nan
69245;BME280;56357;52.304;4.870;2023-02-11T02:05:50;103538.16;;;16.93;nan
69245;BME280;56357;52.304;4.870;2023-02-11T02:08:42;103536.00;;;16.88;nan
69245;BME280;56357;52.304;4.870;2023-02-11T02:11:12;103560.56;;;16.93;nan
69245;BME280;56357;52.304;4.870;2023-02-11T02:13:38;103557.09;;;16.91;nan
69245;BME280;56357;52.304;4.870;2023-02-11T02:16:09;103563.78;;;16.90;nan
69245;BME280;56357;52.304;4.870;2023-02-11T02:27:01;103560.09;;;16.89;nan
69245;BME280;56357;52.304;4.870;2023-02-11T02:38:05;103534.69;;;16.84;nan
69245;BME280;56357;52.304;4.870;2023-02-11T02:43:17;103542.81;;;16.79;nan
69245;BME280;56357;52.304;4.870;2023-02-11T02:45:44;103546.72;;;16.78;nan
69245;BME280;56357;52.304;4.870;2023-02-11T02:48:25;103543.69;;;16.80;nan
69245;BME280;56357;52.304;4.870;2023-02-11T02:53:57;103538.75;;;16.82;nan
69245;BME280;56357;52.304;4.870;2023-02-11T02:56:47;103534.03;;;16.82;nan
69245;BME280;56357;52.304;4.870;2023-02-11T03:07:22;103535.28;;;16.73;nan
69245;BME280;56357;52.304;4.870;2023-02-11T03:12:27;103538.53;;;16.77;nan
69245;BME280;56357;52.304;4.870;2023-02-11T03:14:55;103542.59;;;16.74;nan
69245;BME280;56357;52.304;4.870;2023-02-11T03:17:22;103532.50;;;16.73;nan
69245;BME280;56357;52.304;4.870;2023-02-11T03:19:50;103529.88;;;16.72;nan
69245;BME280;56357;52.304;4.870;2023-02-11T03:22:24;103524.03;;;16.67;nan
69245;BME280;56357;52.304;4.870;2023-02-11T03:24:54;103521.25;;;16.67;nan
69245;BME280;56357;52.304;4.870;2023-02-11T03:30:11;103530.28;;;16.69;nan
69245;BME280;56357;52.304;4.870;2023-02-11T03:32:42;103532.88;;;16.70;nan
69245;BME280;56357;52.304;4.870;2023-02-11T03:35:24;103535.03;;;16.68;nan
69245;BME280;56357;52.304;4.870;2023-02-11T03:37:57;103527.06;;;16.65;nan
69245;BME280;56357;52.304;4.870;2023-02-11T03:40:27;103521.63;;;16.64;nan
69245;BME280;56357;52.304;4.870;2023-02-11T03:42:58;103527.66;;;16.61;nan
69245;BME280;56357;52.304;4.870;2023-02-11T03:45:26;103520.34;;;16.60;nan
69245;BME280;56357;52.304;4.870;2023-02-11T03:47:59;103514.75;;;16.60;nan
69245;BME280;56357;52.304;4.870;2023-02-11T03:50:29;103505.03;;;16.56;nan
69245;BME280;56357;52.304;4.870;2023-02-11T03:52:58;103499.84;;;16.53;nan
69245;BME280;56357;52.304;4.870;2023-02-11T03:55:27;103510.81;;;16.54;nan
69245;BME280;56357;52.304;4.870;2023-02-11T03:57:55;103509.16;;;16.60;nan
69245;BME280;56357;52.304;4.870;2023-02-11T04:00:33;103516.91;;;16.64;nan
69245;BME280;56357;52.304;4.870;2023-02-11T04:03:00;103515.59;;;16.60;nan
69245;BME280;56357;52.304;4.870;2023-02-11T04:05:28;103512.16;;;16.58;nan
69245;BME280;56357;52.304;4.870;2023-02-11T04:07:54;103519.31;;;16.67;nan
69245;BME280;56357;52.304;4.870;2023-02-11T04:10:20;103523.38;;;16.65;nan
69245;BME280;56357;52.304;4.870;2023-02-11T04:12:47;103525.31;;;16.64;nan
69245;BME280;56357;52.304;4.870;2023-02-11T04:15:14;103513.50;;;16.69;nan
69245;BME280;56357;52.304;4.870;2023-02-11T04:17:40;103506.59;;;16.65;nan
69245;BME280;56357;52.304;4.870;2023-02-11T04:20:08;103505.31;;;16.67;nan
69245;BME280;56357;52.304;4.870;2023-02-11T04:22:34;103499.97;;;16.72;nan
69245;BME280;56357;52.304;4.870;2023-02-11T04:25:02;103500.19;;;16.77;nan
69245;BME280;56357;52.304;4.870;2023-02-11T04:27:28;103503.41;;;16.74;nan
69245;BME280;56357;52.304;4.870;2023-02-11T04:29:55;103500.19;;;16.71;nan
69245;BME280;56357;52.304;4.870;2023-02-11T04:32:21;103492.66;;;16.71;nan
69245;BME280;56357;52.304;4.870;2023-02-11T04:34:48;103496.28;;;16.72;nan
69245;BME280;56357;52.304;4.870;2023-02-11T04:37:14;103499.25;;;16.64;nan
69245;BME280;56357;52.304;4.870;2023-02-11T04:39:41;103502.91;;;16.58;nan
69245;BME280;56357;52.304;4.870;2023-02-11T04:42:07;103503.19;;;16.69;nan
69245;BME280;56357;52.304;4.870;2023-02-11T04:44:34;103505.72;;;16.58;nan
69245;BME280;56357;52.304;4.870;2023-02-11T04:47:00;103503.31;;;16.55;nan
69245;BME280;56357;52.304;4.870;2023-02-11T04:49:27;103513.00;;;16.59;nan
69245;BME280;56357;52.304;4.870;2023-02-11T04:51:53;103513.50;;;16.69;nan
69245;BME280;56357;52.304;4.870;2023-02-11T04:54:20;103511.31;;;16.58;nan
69245;BME280;56357;52.304;4.870;2023-02-11T04:56:47;103521.91;;;16.69;nan
69245;BME280;56357;52.304;4.870;2023-02-11T04:59:15;103530.09;;;16.70;nan
69245;BME280;56357;52.304;4.870;2023-02-11T05:01:41;103534.44;;;16.79;nan
69245;BME280;56357;52.304;4.870;2023-02-11T05:04:08;103535.22;;;16.67;nan
69245;BME280;56357;52.304;4.870;2023-02-11T05:06:37;103544.88;;;16.58;nan
69245;BME280;56357;52.304;4.870;2023-02-11T05:09:03;103539.28;;;16.58;nan
69245;BME280;56357;52.304;4.870;2023-02-11T05:11:30;103538.69;;;16.69;nan
69245;BME280;56357;52.304;4.870;2023-02-11T05:13:56;103537.97;;;16.60;nan
69245;BME280;56357;52.304;4.870;2023-02-11T05:16:23;103546.22;;;16.68;nan
69245;BME280;56357;52.304;4.870;2023-02-11T05:18:49;103535.59;;;16.57;nan
69245;BME280;56357;52.304;4.870;2023-02-11T05:21:18;103545.78;;;16.65;nan
69245;BME280;56357;52.304;4.870;2023-02-11T05:23:44;103539.34;;;16.71;nan
69245;BME280;56357;52.304;4.870;2023-02-11T05:26:11;103549.47;;;16.72;nan
69245;BME280;56357;52.304;4.870;2023-02-11T05:28:38;103544.13;;;16.83;nan
69245;BME280;56357;52.304;4.870;2023-02-11T05:31:05;103537.03;;;16.81;nan
69245;BME280;56357;52.304;4.870;2023-02-11T05:33:32;103538.53;;;16.83;nan
69245;BME280;56357;52.304;4.870;2023-02-11T05:36:03;103533.16;;;16.82;nan
69245;BME280;56357;52.304;4.870;2023-02-11T05:38:31;103527.13;;;16.78;nan
69245;BME280;56357;52.304;4.870;2023-02-11T05:40:57;103533.16;;;16.82;nan
69245;BME280;56357;52.304;4.870;2023-02-11T05:43:24;103531.69;;;16.86;nan
69245;BME280;56357;52.304;4.870;2023-02-11T05:45:51;103543.69;;;16.80;nan
69245;BME280;56357;52.304;4.870;2023-02-11T05:48:17;103543.91;;;16.78;nan
69245;BME280;56357;52.304;4.870;2023-02-11T05:50:44;103542.22;;;16.84;nan
69245;BME280;56357;52.304;4.870;2023-02-11T05:53:11;103536.66;;;16.90;nan
69245;BME280;56357;52.304;4.870;2023-02-11T05:55:38;103538.16;;;16.93;nan
69245;BME280;56357;52.304;4.870;2023-02-11T05:58:05;103544.63;;;16.93;nan
69245;BME280;56357;52.304;4.870;2023-02-11T06:00:32;103540.50;;;16.83;nan
69245;BME280;56357;52.304;4.870;2023-02-11T06:02:58;103549.34;;;16.93;nan
69245;BME280;56357;52.304;4.870;2023-02-11T06:05:25;103551.06;;;16.87;nan
69245;BME280;56357;52.304;4.870;2023-02-11T06:07:51;103546.81;;;16.98;nan
69245;BME280;56357;52.304;4.870;2023-02-11T06:10:18;103536.47;;;16.98;nan
69245;BME280;56357;52.304;4.870;2023-02-11T06:12:44;103531.50;;;16.94;nan
69245;BME280;56357;52.304;4.870;2023-02-11T06:15:11;103536.94;;;17.02;nan
69245;BME280;56357;52.304;4.870;2023-02-11T06:17:37;103533.91;;;17.03;nan
69245;BME280;56357;52.304;4.870;2023-02-11T06:20:06;103524.41;;;16.98;nan
69245;BME280;56357;52.304;4.870;2023-02-11T06:22:34;103533.66;;;16.98;nan
69245;BME280;56357;52.304;4.870;2023-02-11T06:25:00;103534.09;;;16.95;nan
69245;BME280;56357;52.304;4.870;2023-02-11T06:27:27;103530.91;;;17.05;nan
69245;BME280;56357;52.304;4.870;2023-02-11T06:29:53;103533.47;;;17.00;nan
69245;BME280;56357;52.304;4.870;2023-02-11T06:32:20;103537.44;;;16.78;nan
69245;BME280;56357;52.304;4.870;2023-02-11T06:34:46;103541.22;;;16.98;nan
69245;BME280;56357;52.304;4.870;2023-02-11T06:37:13;103540.97;;;16.93;nan
69245;BME280;56357;52.304;4.870;2023-02-11T06:39:39;103539.91;;;17.00;nan
69245;BME280;56357;52.304;4.870;2023-02-11T06:42:06;103537.38;;;17.12;nan
69245;BME280;56357;52.304;4.870;2023-02-11T06:44:32;103542.53;;;17.08;nan
69245;BME280;56357;52.304;4.870;2023-02-11T06:46:58;103541.66;;;17.08;nan
69245;BME280;56357;52.304;4.870;2023-02-11T06:49:25;103541.28;;;17.11;nan
69245;BME280;56357;52.304;4.870;2023-02-11T06:51:51;103546.59;;;16.99;nan
69245;BME280;56357;52.304;4.870;2023-02-11T06:54:18;103548.34;;;17.07;nan
69245;BME280;56357;52.304;4.870;2023-02-11T06:56:44;103549.63;;;17.04;nan
69245;BME280;56357;52.304;4.870;2023-02-11T06:59:18;103552.47;;;17.11;nan
69245;BME280;56357;52.304;4.870;2023-02-11T07:01:45;103551.63;;;17.23;nan
69245;BME280;56357;52.304;4.870;2023-02-11T07:04:12;103555.94;;;17.19;nan
69245;BME280;56357;52.304;4.870;2023-02-11T07:06:40;103562.44;;;17.26;nan
69245;BME280;56357;52.304;4.870;2023-02-11T07:09:07;103554.88;;;17.20;nan
69245;BME280;56357;52.304;4.870;2023-02-11T07:11:33;103555.94;;;17.13;nan
69245;BME280;56357;52.304;4.870;2023-02-11T07:14:03;103553.34;;;17.18;nan
69245;BME280;56357;52.304;4.870;2023-02-11T07:16:30;103555.53;;;17.22;nan
69245;BME280;56357;52.304;4.870;2023-02-11T07:18:57;103562.84;;;17.17;nan
69245;BME280;56357;52.304;4.870;2023-02-11T07:21:23;103568.06;;;17.33;nan
69245;BME280;56357;52.304;4.870;2023-02-11T07:23:50;103565.91;;;17.35;nan
69245;BME280;56357;52.304;4.870;2023-02-11T07:26:19;103574.97;;;17.30;nan
69245;BME280;56357;52.304;4.870;2023-02-11T07:28:47;103585.06;;;17.31;nan
69245;BME280;56357;52.304;4.870;2023-02-11T07:31:20;103585.13;;;17.38;nan
69245;BME280;56357;52.304;4.870;2023-02-11T07:33:47;103573.91;;;17.38;nan
69245;BME280;56357;52.304;4.870;2023-02-11T07:36:15;103568.91;;;17.33;nan
69245;BME280;56357;52.304;4.870;2023-02-11T07:38:42;103572.16;;;17.37;nan
69245;BME280;56357;52.304;4.870;2023-02-11T07:41:11;103571.97;;;17.45;nan
69245;BME280;56357;52.304;4.870;2023-02-11T07:43:38;103577.53;;;17.32;nan
69245;BME280;56357;52.304;4.870;2023-02-11T07:46:07;103579.22;;;17.20;nan
69245;BME280;56357;52.304;4.870;2023-02-11T07:48:34;103581.13;;;17.13;nan
69245;BME280;56357;52.304;4.870;2023-02-11T07:51:20;103585.31;;;17.36;nan
69245;BME280;56357;52.304;4.870;2023-02-11T07:53:47;103584.41;;;17.29;nan
69245;BME280;56357;52.304;4.870;2023-02-11T07:56:15;103586.56;;;17.27;nan
69245;BME280;56357;52.304;4.870;2023-02-11T07:58:42;103587.47;;;17.41;nan
69245;BME280;56357;52.304;4.870;2023-02-11T08:01:12;103586.16;;;17.30;nan
69245;BME280;56357;52.304;4.870;2023-02-11T08:03:39;103594.16;;;17.40;nan
69245;BME280;56357;52.304;4.870;2023-02-11T08:06:09;103592.03;;;17.42;nan
69245;BME280;56357;52.304;4.870;2023-02-11T08:08:36;103597.84;;;17.47;nan
69245;BME280;56357;52.304;4.870;2023-02-11T08:11:11;103600.66;;;17.47;nan
69245;BME280;56357;52.304;4.870;2023-02-11T08:13:39;103604.94;;;17.43;nan
69245;BME280;56357;52.304;4.870;2023-02-11T08:16:06;103603.94;;;17.57;nan
69245;BME280;56357;52.304;4.870;2023-02-11T08:18:35;103603.44;;;17.47;nan
69245;BME280;56357;52.304;4.870;2023-02-11T08:21:06;103607.81;;;17.56;nan
69245;BME280;56357;52.304;4.870;2023-02-11T08:23:35;103606.09;;;17.62;nan
69245;BME280;56357;52.304;4.870;2023-02-11T08:26:08;103611.84;;;17.47;nan
69245;BME280;56357;52.304;4.870;2023-02-11T08:28:36;103604.78;;;17.51;nan
69245;BME280;56357;52.304;4.870;2023-02-11T08:31:15;103608.50;;;17.65;nan
69245;BME280;56357;52.304;4.870;2023-02-11T08:33:43;103618.81;;;17.51;nan
69245;BME280;56357;52.304;4.870;2023-02-11T08:36:13;103607.38;;;17.53;nan
69245;BME280;56357;52.304;4.870;2023-02-11T08:38:40;103620.34;;;17.54;nan
69245;BME280;56357;52.304;4.870;2023-02-11T08:41:08;103632.16;;;17.49;nan
69245;BME280;56357;52.304;4.870;2023-02-11T08:43:35;103626.69;;;17.41;nan
69245;BME280;56357;52.304;4.870;2023-02-11T08:46:06;103627.25;;;17.58;nan
69245;BME280;56357;52.304;4.870;2023-02-11T08:48:32;103622.25;;;17.60;nan
69245;BME280;56357;52.304;4.870;2023-02-11T08:50:59;103614.06;;;17.52;nan
69245;BME280;56357;52.304;4.870;2023-02-11T08:53:26;103624.47;;;17.71;nan
69245;BME280;56357;52.304;4.870;2023-02-11T08:55:54;103624.44;;;17.64;nan
69245;BME280;56357;52.304;4.870;2023-02-11T08:58:21;103624.03;;;17.67;nan
69245;BME280;56357;52.304;4.870;2023-02-11T09:00:48;103624.88;;;17.61;nan
69245;BME280;56357;52.304;4.870;2023-02-11T09:03:15;103632.19;;;17.62;nan
69245;BME280;56357;52.304;4.870;2023-02-11T09:05:43;103637.41;;;17.72;nan
69245;BME280;56357;52.304;4.870;2023-02-11T09:08:09;103631.16;;;17.70;nan
69245;BME280;56357;52.304;4.870;2023-02-11T09:10:36;103640.41;;;17.70;nan
69245;BME280;56357;52.304;4.870;2023-02-11T09:13:03;103640.22;;;17.65;nan
69245;BME280;56357;52.304;4.870;2023-02-11T09:15:29;103646.66;;;17.59;nan
69245;BME280;56357;52.304;4.870;2023-02-11T09:17:56;103648.84;;;17.70;nan
69245;BME280;56357;52.304;4.870;2023-02-11T09:20:23;103647.56;;;17.73;nan
69245;BME280;56357;52.304;4.870;2023-02-11T09:22:50;103644.53;;;17.74;nan
69245;BME280;56357;52.304;4.870;2023-02-11T09:25:17;103652.06;;;17.67;nan
69245;BME280;56357;52.304;4.870;2023-02-11T09:27:43;103653.16;;;17.73;nan
69245;BME280;56357;52.304;4.870;2023-02-11T09:30:10;103651.84;;;17.75;nan
69245;BME280;56357;52.304;4.870;2023-02-11T09:32:37;103659.22;;;17.76;nan
69245;BME280;56357;52.304;4.870;2023-02-11T09:35:04;103663.09;;;17.82;nan
69245;BME280;56357;52.304;4.870;2023-02-11T09:37:30;103656.38;;;17.63;nan
69245;BME280;56357;52.304;4.870;2023-02-11T09:39:57;103653.59;;;17.76;nan
69245;BME280;56357;52.304;4.870;2023-02-11T09:44:56;103665.03;;;17.81;nan
69245;BME280;56357;52.304;4.870;2023-02-11T09:47:28;103674.28;;;17.75;nan
69245;BME280;56357;52.304;4.870;2023-02-11T09:50:00;103678.16;;;17.74;nan
69245;BME280;56357;52.304;4.870;2023-02-11T09:55:32;103684.22;;;17.78;nan
69245;BME280;56357;52.304;4.870;2023-02-11T09:58:14;103679.03;;;17.81;nan
69245;BME280;56357;52.304;4.870;2023-02-11T10:00:50;103687.03;;;17.78;nan
69245;BME280;56357;52.304;4.870;2023-02-11T10:03:36;103687.44;;;17.75;nan
69245;BME280;56357;52.304;4.870;2023-02-11T10:06:36;103706.03;;;17.82;nan
69245;BME280;56357;52.304;4.870;2023-02-11T10:09:27;103706.44;;;17.79;nan
69245;BME280;56357;52.304;4.870;2023-02-11T10:17:37;103717.25;;;17.82;nan
69245;BME280;56357;52.304;4.870;2023-02-11T10:22:57;103711.44;;;17.90;nan
69245;BME280;56357;52.304;4.870;2023-02-11T10:25:37;103716.81;;;17.85;nan
69245;BME280;56357;52.304;4.870;2023-02-11T10:31:00;103720.97;;;18.02;nan
69245;BME280;56357;52.304;4.870;2023-02-11T10:35:57;103741.09;;;18.19;nan
69245;BME280;56357;52.304;4.870;2023-02-11T10:38:24;103736.47;;;17.98;nan
69245;BME280;56357;52.304;4.870;2023-02-11T10:40:50;103732.16;;;18.02;nan
69245;BME280;56357;52.304;4.870;2023-02-11T10:43:19;103735.22;;;18.14;nan
69245;BME280;56357;52.304;4.870;2023-02-11T10:45:50;103732.19;;;18.15;nan
69245;BME280;56357;52.304;4.870;2023-02-11T10:48:43;103742.63;;;18.28;nan
69245;BME280;56357;52.304;4.870;2023-02-11T10:51:17;103740.44;;;18.23;nan
69245;BME280;56357;52.304;4.870;2023-02-11T10:53:49;103740.69;;;18.28;nan
69245;BME280;56357;52.304;4.870;2023-02-11T10:56:22;103738.72;;;18.22;nan
69245;BME280;56357;52.304;4.870;2023-02-11T11:04:33;103731.81;;;18.18;nan
69245;BME280;56357;52.304;4.870;2023-02-11T11:09:46;103750.16;;;18.27;nan
69245;BME280;56357;52.304;4.870;2023-02-11T11:12:33;103747.78;;;18.31;nan
69245;BME280;56357;52.304;4.870;2023-02-11T11:17:36;103747.34;;;18.27;nan
69245;BME280;56357;52.304;4.870;2023-02-11T11:20:14;103749.09;;;18.35;nan
69245;BME280;56357;52.304;4.870;2023-02-11T11:22:41;103745.19;;;18.29;nan
69245;BME280;56357;52.304;4.870;2023-02-11T11:25:27;103752.97;;;18.41;nan
69245;BME280;56357;52.304;4.870;2023-02-11T11:27:59;103750.41;;;18.33;nan
69245;BME280;56357;52.304;4.870;2023-02-11T11:30:32;103746.72;;;18.32;nan
69245;BME280;56357;52.304;4.870;2023-02-11T11:33:04;103755.97;;;18.26;nan
69245;BME280;56357;52.304;4.870;2023-02-11T11:35:39;103751.25;;;18.26;nan
69245;BME280;56357;52.304;4.870;2023-02-11T11:38:06;103754.25;;;18.25;nan
69245;BME280;56357;52.304;4.870;2023-02-11T11:40:37;103755.13;;;18.39;nan
69245;BME280;56357;52.304;4.870;2023-02-11T11:45:55;103762.47;;;18.33;nan
69245;BME280;56357;52.304;4.870;2023-02-11T11:48:29;103767.44;;;18.38;nan
69245;BME280;56357;52.304;4.870;2023-02-11T11:50:59;103764.66;;;18.38;nan
69245;BME280;56357;52.304;4.870;2023-02-11T11:56:15;103756.19;;;18.24;nan
69245;BME280;56357;52.304;4.870;2023-02-11T11:58:42;103762.91;;;18.30;nan
69245;BME280;56357;52.304;4.870;2023-02-11T12:06:40;103770.25;;;18.38;nan
69245;BME280;56357;52.304;4.870;2023-02-11T12:14:39;103756.00;;;18.39;nan
69245;BME280;56357;52.304;4.870;2023-02-11T12:17:13;103763.38;;;18.40;nan
69245;BME280;56357;52.304;4.870;2023-02-11T12:20:42;103754.97;;;18.47;nan
69245;BME280;56357;52.304;4.870;2023-02-11T12:25:24;103751.50;;;18.45;nan
69245;BME280;56357;52.304;4.870;2023-02-11T12:42:23;103769.44;;;18.44;nan
69245;BME280;56357;52.304;4.870;2023-02-11T12:50:55;103759.09;;;18.44;nan
69245;BME280;56357;52.304;4.870;2023-02-11T12:55:59;103763.84;;;18.57;nan
69245;BME280;56357;52.304;4.870;2023-02-11T12:58:31;103773.34;;;18.49;nan
69245;BME280;56357;52.304;4.870;2023-02-11T13:01:04;103769.47;;;18.57;nan
69245;BME280;56357;52.304;4.870;2023-02-11T13:03:46;103757.78;;;18.60;nan
69245;BME280;56357;52.304;4.870;2023-02-11T13:06:19;103766.22;;;18.53;nan
69245;BME280;56357;52.304;4.870;2023-02-11T13:08:57;103767.09;;;18.60;nan
69245;BME280;56357;52.304;4.870;2023-02-11T13:11:45;103766.44;;;18.58;nan
69245;BME280;56357;52.304;4.870;2023-02-11T13:14:29;103772.28;;;18.70;nan
69245;BME280;56357;52.304;4.870;2023-02-11T13:16:59;103765.81;;;18.76;nan
69245;BME280;56357;52.304;4.870;2023-02-11T13:19:44;103759.31;;;18.75;nan
69245;BME280;56357;52.304;4.870;2023-02-11T13:22:28;103758.25;;;18.70;nan
69245;BME280;56357;52.304;4.870;2023-02-11T13:27:45;103749.81;;;18.83;nan
69245;BME280;56357;52.304;4.870;2023-02-11T13:30:32;103749.63;;;18.84;nan
69245;BME280;56357;52.304;4.870;2023-02-11T13:35:30;103739.84;;;19.46;nan
69245;BME280;56357;52.304;4.870;2023-02-11T13:38:02;103737.75;;;19.85;nan
69245;BME280;56357;52.304;4.870;2023-02-11T13:40:37;103735.63;;;20.25;nan
69245;BME280;56357;52.304;4.870;2023-02-11T13:43:10;103731.78;;;20.51;nan
69245;BME280;56357;52.304;4.870;2023-02-11T13:45:46;103724.31;;;20.63;nan
69245;BME280;56357;52.304;4.870;2023-02-11T13:48:25;103726.63;;;20.72;nan
69245;BME280;56357;52.304;4.870;2023-02-11T13:51:07;103724.59;;;20.79;nan
69245;BME280;56357;52.304;4.870;2023-02-11T13:58:59;103739.50;;;20.86;nan
69245;BME280;56357;52.304;4.870;2023-02-11T14:02:03;103747.03;;;20.92;nan
69245;BME280;56357;52.304;4.870;2023-02-11T14:13:32;103751.34;;;21.20;nan
69245;BME280;56357;52.304;4.870;2023-02-11T14:16:07;103748.09;;;21.23;nan
69245;BME280;56357;52.304;4.870;2023-02-11T14:21:18;103741.34;;;21.24;nan
69245;BME280;56357;52.304;4.870;2023-02-11T14:23:46;103737.22;;;21.26;nan
69245;BME280;56357;52.304;4.870;2023-02-11T14:28:52;103741.50;;;21.29;nan
69245;BME280;56357;52.304;4.870;2023-02-11T14:31:44;103732.00;;;21.23;nan
69245;BME280;56357;52.304;4.870;2023-02-11T14:34:43;103744.09;;;21.30;nan
69245;BME280;56357;52.304;4.870;2023-02-11T14:37:24;103747.72;;;21.37;nan
69245;BME280;56357;52.304;4.870;2023-02-11T14:40:33;103760.53;;;21.33;nan
69245;BME280;56357;52.304;4.870;2023-02-11T14:43:13;103753.00;;;21.27;nan
69245;BME280;56357;52.304;4.870;2023-02-11T14:45:44;103746.06;;;21.30;nan
69245;BME280;56357;52.304;4.870;2023-02-11T14:48:15;103752.78;;;21.29;nan
69245;BME280;56357;52.304;4.870;2023-02-11T14:50:53;103759.28;;;21.29;nan
69245;BME280;56357;52.304;4.870;2023-02-11T14:53:23;103756.84;;;21.33;nan
69245;BME280;56357;52.304;4.870;2023-02-11T14:55:51;103761.19;;;21.35;nan
69245;BME280;56357;52.304;4.870;2023-02-11T14:58:29;103763.50;;;21.38;nan
69245;BME280;56357;52.304;4.870;2023-02-11T15:06:02;103770.25;;;21.37;nan
69245;BME280;56357;52.304;4.870;2023-02-11T15:08:31;103772.84;;;21.39;nan
69245;BME280;56357;52.304;4.870;2023-02-11T15:11:02;103770.03;;;21.39;nan
69245;BME280;56357;52.304;4.870;2023-02-11T15:13:30;103774.16;;;21.36;nan
69245;BME280;56357;52.304;4.870;2023-02-11T15:16:03;103778.72;;;21.37;nan
69245;BME280;56357;52.304;4.870;2023-02-11T15:18:41;103777.78;;;20.94;nan
69245;BME280;56357;52.304;4.870;2023-02-11T15:21:08;103783.06;;;20.15;nan
69245;BME280;56357;52.304;4.870;2023-02-11T15:23:35;103788.84;;;19.82;nan
69245;BME280;56357;52.304;4.870;2023-02-11T15:26:11;103779.53;;;19.82;nan
69245;BME280;56357;52.304;4.870;2023-02-11T15:28:45;103773.69;;;19.83;nan
69245;BME280;56357;52.304;4.870;2023-02-11T15:31:18;103777.19;;;19.72;nan
69245;BME280;56357;52.304;4.870;2023-02-11T15:33:45;103784.09;;;19.76;nan
69245;BME280;56357;52.304;4.870;2023-02-11T15:36:13;103776.31;;;19.72;nan
69245;BME280;56357;52.304;4.870;2023-02-11T15:38:39;103767.69;;;19.67;nan
69245;BME280;56357;52.304;4.870;2023-02-11T15:41:06;103776.31;;;19.72;nan
69245;BME280;56357;52.304;4.870;2023-02-11T15:43:47;103780.88;;;19.66;nan
69245;BME280;56357;52.304;4.870;2023-02-11T15:46:18;103788.03;;;19.62;nan